Thursday, September 18, 2014
07:44 UTC
  |  Log In   |  Register Free
Airport Search:

Enterprise Municipal Airport
(KEDN)

Enterprise Municipal Airport Diagram
No Airport Diagram Available

FAA data valid effective July 24, 2014 until September 18, 2014 (unless otherwise noted).

 
 
 
 
 
 
 
 
 
 
 
 
 
 

Current Aviation Weather for Enterprise Municipal Airport (KEDN)

The most recent METAR observation for KEDN was updated at: 0712
METAR Summary (Translated METAR)
KEDN
180655Z AUTO 35004KT 5SM BR CLR 20/20 A2991 RMK AO2
KSXS
180656Z AUTO 32004KT 6SM CLR 21/20 A2994 RMK AO2 SLP137 T02090204
(4.6 nm NE from KEDN)
KLOR
180653Z AUTO 5SM BR CLR 21/20 A2990 RMK AO2 SLP120 T02060200 TSNO $
(8.3 nm NE from KEDN)
TAF Summary (Translated TAF)
KOZR
(5.2 nm SE from KLOR)
1800/1906 27004KT 9999 FEW040 QNH2989INS BECMG 1805/1806 VRB04KT 8000 BR FEW035 QNH2992INS BECMG 1814/1815 VRB06KT 9999 NSW FEW200 QNH2991INS TX31/1820Z TN21/1811Z
  Airport Weather Conditions for KEDN

Current weather conditions are
not available for EDN


The nearest NOAA weather station
is at LOR, (8.3 nm NE from EDN)
  
 Current Weather at LOR
69° F
Fog/Mist
LOR NOAA Radar

Pressure: 29.90 in
Humidity: 96%
Dew Point: 68.0°F
Visibility: 5.00 mi


Airport Weather Forecast for KEDN

Translated METAR and TAF for KLOR
Translated METAR for KLOR (0739 UTC 18 September 2014)
found at http://aviationweather.gov/adds/metars/
 
METAR text: KLOR 180653Z AUTO 5SM BR CLR 21/20 A2990 RMK AO2 SLP120 T02060200 TSNO $
Conditions at: KLOR (LOWE AHP/FT. RUC, AL, US) observed 0653 UTC 18 September 2014
Temperature: 20.6°C (69°F)
Dewpoint: 20.0°C (68°F) [RH = 96%]
Pressure (altimeter): 29.90 inches Hg (1012.6 mb)
[Sea-level pressure: 1012.0 mb]
Winds: missing
Visibility: 5 miles (8 km)
Ceiling: at least 12,000 feet AGL
Clouds: sky clear below 12,000 feet AGL
Weather: BR  (mist)
SOME DATA ABOVE MAY BE INACCURATE!!!
"$" is an indication the sensor requires maintenance
Translated TAF for KLOR

There is no translated TAF available for this airport

Find All Airport Services Find A Hotel Find A Rental Car Find A Golf Course Find A Restaurant $100 Hamburger



FBO's on the Field
FBO Company Facility Photos Services Transportation Aviation Fuel Prices: Prices include tax
Catering Weather Repair Courtesy Rental Type 100LL JetA JetA+ MOGAS 8087
 
Enterprise Municipal Airport

This FBO has not yet been rated
FS:Epic
Last Updated: Aug-20
Login to update fuel prices
SS:
Contact Enterprise Municipal AirportMore FBO Information
 
Add another FBO Facility Photos Catering Weather Repair Courtesy Rental Type 100LL JetA JetA+ MOGAS 8087
Services Transportation Aviation Fuel Prices: Prices include tax


model-print
model-print
model-print
model-print